createdAt,value
2018-12-29T00:01:03.523Z,42.50
2018-12-29T00:04:07.862Z,40.03
2018-12-29T00:07:12.394Z,42.13
2018-12-29T00:10:16.658Z,40.93
2018-12-29T00:13:20.972Z,40.37
2018-12-29T00:16:25.359Z,41.30
2018-12-29T00:19:29.777Z,41.77
2018-12-29T00:22:34.118Z,40.63
2018-12-29T00:25:38.417Z,42.30
2018-12-29T00:28:42.690Z,41.90
2018-12-29T00:31:47.014Z,40.07
2018-12-29T00:34:51.318Z,41.77
2018-12-29T00:37:55.676Z,41.83
2018-12-29T00:40:59.998Z,39.43
2018-12-29T00:44:04.289Z,39.30
2018-12-29T00:47:08.719Z,40.20
2018-12-29T00:50:13.014Z,38.10
2018-12-29T00:53:17.380Z,39.60
2018-12-29T00:56:21.693Z,38.60
2018-12-29T00:59:26.040Z,39.10
2018-12-29T01:02:30.370Z,37.10
2018-12-29T01:05:34.658Z,37.30
2018-12-29T01:08:39.017Z,37.30
2018-12-29T01:11:43.349Z,37.50
2018-12-29T01:14:47.644Z,37.93
2018-12-29T01:17:51.913Z,38.80
2018-12-29T01:20:56.298Z,38.77
2018-12-29T01:24:00.609Z,37.33
2018-12-29T01:27:05.025Z,36.90
2018-12-29T01:30:09.378Z,37.93
2018-12-29T01:33:13.718Z,38.30
2018-12-29T01:36:18.044Z,36.33
2018-12-29T01:39:22.435Z,37.40
2018-12-29T01:42:26.819Z,36.87
2018-12-29T01:45:31.098Z,37.77
2018-12-29T01:48:35.464Z,36.80
2018-12-29T01:51:39.765Z,37.90
2018-12-29T01:54:44.083Z,37.40
2018-12-29T01:57:48.404Z,37.83
2018-12-29T02:00:52.698Z,37.73
2018-12-29T02:03:57.070Z,37.10
2018-12-29T02:07:02.391Z,36.93
2018-12-29T02:10:06.862Z,36.20
2018-12-29T02:13:11.153Z,36.67
2018-12-29T02:16:15.438Z,36.57
2018-12-29T02:19:19.759Z,34.23
2018-12-29T02:22:24.064Z,36.20
2018-12-29T02:25:28.423Z,37.70
2018-12-29T02:28:32.724Z,35.90
2018-12-29T02:31:37.087Z,37.20
2018-12-29T02:34:41.386Z,35.93
2018-12-29T02:37:45.759Z,37.13
2018-12-29T02:40:50.018Z,35.10
2018-12-29T02:43:54.325Z,36.33
2018-12-29T02:46:58.679Z,37.37
2018-12-29T02:50:03.005Z,38.00
2018-12-29T02:53:07.363Z,34.80
2018-12-29T02:56:11.780Z,35.80
2018-12-29T02:59:16.062Z,36.83
2018-12-29T03:02:20.394Z,35.97
2018-12-29T03:05:24.674Z,35.97
2018-12-29T03:08:28.962Z,35.00
2018-12-29T03:11:33.213Z,35.80
2018-12-29T03:14:37.531Z,35.57
2018-12-29T03:17:41.898Z,34.50
2018-12-29T03:20:46.190Z,34.10
2018-12-29T03:23:50.608Z,34.00
2018-12-29T03:26:54.934Z,34.33
2018-12-29T03:29:59.303Z,35.30
2018-12-29T03:33:03.600Z,36.50
2018-12-29T03:36:07.975Z,34.67
2018-12-29T03:39:12.333Z,36.27
2018-12-29T03:42:16.634Z,35.53
2018-12-29T03:45:20.964Z,34.30
2018-12-29T03:48:25.280Z,32.23
2018-12-29T03:51:29.612Z,32.30
2018-12-29T03:54:33.900Z,33.30
2018-12-29T03:57:38.265Z,34.37
2018-12-29T04:00:42.529Z,33.90
2018-12-29T04:03:46.947Z,34.03
2018-12-29T04:06:51.258Z,31.87
2018-12-29T04:09:56.163Z,32.43
2018-12-29T04:13:01.559Z,30.70
2018-12-29T04:16:05.842Z,31.40
2018-12-29T04:19:10.233Z,32.17
2018-12-29T04:22:14.659Z,32.23
2018-12-29T04:25:22.814Z,32.00
2018-12-29T04:28:27.085Z,30.50
2018-12-29T04:31:31.425Z,28.70
2018-12-29T04:34:35.718Z,29.77
2018-12-29T04:37:40.009Z,30.77
2018-12-29T04:40:44.313Z,29.43
2018-12-29T04:43:48.575Z,27.20
2018-12-29T04:46:52.875Z,28.27
2018-12-29T04:49:57.213Z,29.27
2018-12-29T04:53:01.549Z,27.47
2018-12-29T04:56:05.868Z,27.10
2018-12-29T04:59:11.337Z,26.13
2018-12-29T05:02:15.778Z,26.37
2018-12-29T05:05:20.189Z,25.70
2018-12-29T05:08:24.566Z,24.70
2018-12-29T05:11:29.018Z,25.47
2018-12-29T05:14:33.294Z,25.77
2018-12-29T05:17:37.750Z,27.17
2018-12-29T05:20:42.108Z,29.40
2018-12-29T05:23:46.484Z,24.90
2018-12-29T05:26:50.748Z,27.93
2018-12-29T05:29:55.094Z,26.63
2018-12-29T05:32:59.458Z,27.93
2018-12-29T05:36:03.716Z,26.60
2018-12-29T05:39:08.094Z,27.00
2018-12-29T05:42:12.403Z,28.37
2018-12-29T05:45:16.761Z,27.70
2018-12-29T05:48:21.113Z,25.80
2018-12-29T05:51:25.379Z,28.53
2018-12-29T05:54:29.713Z,27.60
2018-12-29T05:57:34.174Z,27.90
2018-12-29T06:00:38.508Z,28.10
2018-12-29T06:03:42.794Z,27.40
2018-12-29T06:06:47.150Z,26.40
2018-12-29T06:09:51.470Z,26.83
2018-12-29T06:12:55.798Z,27.80
2018-12-29T06:16:00.077Z,27.20
2018-12-29T06:19:04.369Z,22.63
2018-12-29T06:22:08.819Z,27.40
2018-12-29T06:25:13.170Z,26.87
2018-12-29T06:28:17.434Z,25.17
2018-12-29T06:31:21.763Z,25.73
2018-12-29T06:34:26.109Z,25.93
2018-12-29T06:37:30.447Z,23.87
2018-12-29T06:40:34.739Z,24.07
2018-12-29T06:43:39.013Z,22.43
2018-12-29T06:46:43.365Z,22.00
2018-12-29T06:49:47.650Z,21.77
2018-12-29T06:52:51.998Z,23.53
2018-12-29T06:55:56.338Z,24.33
2018-12-29T06:59:00.703Z,23.00
2018-12-29T07:02:05.126Z,25.03
2018-12-29T07:05:09.502Z,24.80
2018-12-29T07:08:13.770Z,26.10
2018-12-29T07:11:18.128Z,26.83
2018-12-29T07:14:22.419Z,26.23
2018-12-29T07:17:26.769Z,27.90
2018-12-29T07:20:31.032Z,27.50
2018-12-29T07:23:35.421Z,27.13
2018-12-29T07:26:39.759Z,27.07
2018-12-29T07:29:44.069Z,26.53
2018-12-29T07:32:48.405Z,26.77
2018-12-29T07:35:52.780Z,28.53
2018-12-29T07:38:57.057Z,26.97
2018-12-29T07:42:01.423Z,28.20
2018-12-29T07:45:05.867Z,29.17
2018-12-29T07:48:10.258Z,27.00
2018-12-29T07:51:14.541Z,26.97
2018-12-29T07:54:18.889Z,26.50
2018-12-29T07:57:23.075Z,25.97
2018-12-29T08:00:27.377Z,27.43
2018-12-29T08:03:31.738Z,27.23
2018-12-29T08:06:36.039Z,27.07
2018-12-29T08:09:40.416Z,26.60
2018-12-29T08:12:44.746Z,26.83
2018-12-29T08:15:49.089Z,24.90
2018-12-29T08:18:53.437Z,23.20
2018-12-29T08:21:57.713Z,24.70
2018-12-29T08:25:02.092Z,24.30
2018-12-29T08:28:06.344Z,26.17
2018-12-29T08:31:10.703Z,25.70
2018-12-29T08:34:15.093Z,26.30
2018-12-29T08:37:19.396Z,25.83
2018-12-29T08:40:24.916Z,25.73
2018-12-29T08:43:29.220Z,24.70
2018-12-29T08:46:33.533Z,26.67
2018-12-29T08:49:37.858Z,25.67
2018-12-29T08:52:42.157Z,25.60
2018-12-29T08:55:46.452Z,25.13
2018-12-29T08:58:50.752Z,25.30
2018-12-29T09:01:55.151Z,24.73
2018-12-29T09:04:59.508Z,27.10
2018-12-29T09:08:03.799Z,27.77
2018-12-29T09:11:08.118Z,27.43
2018-12-29T09:14:12.458Z,26.20
2018-12-29T09:17:16.788Z,27.30
2018-12-29T09:20:21.114Z,26.57
2018-12-29T09:23:25.421Z,28.53
2018-12-29T09:26:29.732Z,26.70
2018-12-29T09:29:34.056Z,26.77
2018-12-29T09:32:38.374Z,27.13
2018-12-29T09:35:42.697Z,25.90
2018-12-29T09:38:46.968Z,26.07
2018-12-29T09:41:51.426Z,27.37
2018-12-29T09:44:55.901Z,25.20
2018-12-29T09:48:00.198Z,26.60
2018-12-29T09:51:04.568Z,27.40
2018-12-29T09:54:08.813Z,26.63
2018-12-29T09:57:13.137Z,25.50
2018-12-29T10:00:17.457Z,25.90
2018-12-29T10:03:21.782Z,27.00
2018-12-29T10:06:26.054Z,29.80
2018-12-29T10:09:30.393Z,28.30
2018-12-29T10:12:34.759Z,27.90
2018-12-29T10:15:39.233Z,27.37
2018-12-29T10:18:43.501Z,26.80
2018-12-29T10:21:47.807Z,27.83
2018-12-29T10:24:52.161Z,28.47
2018-12-29T10:27:56.497Z,28.57
2018-12-29T10:31:00.797Z,29.10
2018-12-29T10:34:05.182Z,28.77
2018-12-29T10:37:09.458Z,28.47
2018-12-29T10:40:13.763Z,27.83
2018-12-29T10:43:18.105Z,28.90
2018-12-29T10:46:22.402Z,29.67
2018-12-29T10:49:26.788Z,29.97
2018-12-29T10:52:31.082Z,29.77
2018-12-29T10:55:35.403Z,28.90
2018-12-29T10:58:39.757Z,31.70
2018-12-29T11:01:44.037Z,31.17
2018-12-29T11:04:48.362Z,28.43
2018-12-29T11:07:52.691Z,28.00
2018-12-29T11:10:57.056Z,28.20
2018-12-29T11:14:01.480Z,30.60
2018-12-29T11:17:05.797Z,30.73
2018-12-29T11:20:10.141Z,31.93
2018-12-29T11:23:14.477Z,32.33
2018-12-29T11:26:18.829Z,31.53
2018-12-29T11:29:23.155Z,31.63
2018-12-29T11:32:27.522Z,33.10
2018-12-29T11:35:31.886Z,32.90
2018-12-29T11:38:36.208Z,32.00
2018-12-29T11:41:40.526Z,32.87
2018-12-29T11:44:44.866Z,33.43
2018-12-29T11:47:50.007Z,32.57
2018-12-29T11:50:54.515Z,33.37
2018-12-29T11:53:58.900Z,33.40
2018-12-29T11:57:03.298Z,34.87
2018-12-29T12:00:09.135Z,34.33
2018-12-29T12:03:13.582Z,32.73
2018-12-29T12:06:17.885Z,33.87
2018-12-29T12:09:22.286Z,35.47
2018-12-29T12:12:26.660Z,34.20
2018-12-29T12:15:31.026Z,35.60
2018-12-29T12:18:35.400Z,35.67
2018-12-29T12:21:39.662Z,36.30
2018-12-29T12:24:45.250Z,36.50
2018-12-29T12:27:49.620Z,34.93
2018-12-29T12:30:56.346Z,36.33
2018-12-29T12:34:01.047Z,35.03
2018-12-29T12:37:05.721Z,36.70
2018-12-29T12:40:10.136Z,36.23
2018-12-29T12:43:14.625Z,38.57
2018-12-29T12:46:19.317Z,37.30
2018-12-29T12:49:23.917Z,34.30
2018-12-29T12:52:28.341Z,35.13
2018-12-29T12:55:32.772Z,36.03
2018-12-29T12:58:37.600Z,36.67
2018-12-29T13:01:42.196Z,35.50
2018-12-29T13:04:46.582Z,34.60
2018-12-29T13:07:50.944Z,33.10
2018-12-29T13:10:55.559Z,35.17
2018-12-29T13:14:00.132Z,35.70
2018-12-29T13:17:04.561Z,34.50
2018-12-29T13:20:08.880Z,32.70
2018-12-29T13:23:13.208Z,33.23
2018-12-29T13:26:17.602Z,31.90
2018-12-29T13:29:21.873Z,31.83
2018-12-29T13:32:26.264Z,31.30
2018-12-29T13:35:30.636Z,32.30
2018-12-29T13:38:34.940Z,31.37
2018-12-29T13:41:39.211Z,30.70
2018-12-29T13:44:43.751Z,31.03
2018-12-29T13:47:48.177Z,31.67
2018-12-29T13:50:52.479Z,31.30
2018-12-29T13:53:56.805Z,31.27
2018-12-29T13:57:01.696Z,32.73
2018-12-29T14:00:06.245Z,32.33
2018-12-29T14:03:10.514Z,30.73
2018-12-29T14:06:14.890Z,31.53
2018-12-29T14:09:19.230Z,30.57
2018-12-29T14:12:23.605Z,29.73
2018-12-29T14:15:27.994Z,30.30
2018-12-29T14:18:32.308Z,29.60
2018-12-29T14:21:36.709Z,29.37
2018-12-29T14:24:41.081Z,29.20
2018-12-29T14:27:45.404Z,28.60
2018-12-29T14:30:49.800Z,26.03
2018-12-29T14:33:54.145Z,25.40
2018-12-29T14:36:58.435Z,26.80
2018-12-29T14:40:02.835Z,27.30
2018-12-29T14:43:07.515Z,24.60
2018-12-29T14:46:11.973Z,23.30
2018-12-29T14:49:16.356Z,24.63
2018-12-29T14:52:20.765Z,24.67
2018-12-29T14:55:25.154Z,23.37
2018-12-29T14:58:29.536Z,22.93
2018-12-29T15:01:33.909Z,22.63
2018-12-29T15:04:38.351Z,22.20
2018-12-29T15:07:42.638Z,22.23
2018-12-29T15:10:47.054Z,22.30
2018-12-29T15:13:51.619Z,22.10
2018-12-29T15:16:57.560Z,22.93
2018-12-29T15:20:01.909Z,26.20
2018-12-29T15:23:08.356Z,24.90
2018-12-29T15:26:12.755Z,25.50
2018-12-29T15:29:17.161Z,23.60
2018-12-29T15:32:21.439Z,24.27
2018-12-29T15:35:26.001Z,25.70
2018-12-29T15:38:30.741Z,26.90
2018-12-29T15:41:35.225Z,25.93
2018-12-29T15:44:39.968Z,25.70
2018-12-29T15:47:44.661Z,24.70
2018-12-29T15:50:49.034Z,23.77
2018-12-29T15:53:53.430Z,23.07
2018-12-29T15:56:58.148Z,24.47
2018-12-29T16:00:02.840Z,23.20
2018-12-29T16:03:07.225Z,24.10
2018-12-29T16:06:11.928Z,22.70
2018-12-29T16:09:16.336Z,22.30
2018-12-29T16:12:21.025Z,23.13
2018-12-29T16:15:25.472Z,21.77
2018-12-29T16:18:29.972Z,22.93
2018-12-29T16:21:34.403Z,22.30
2018-12-29T16:24:38.752Z,21.50
2018-12-29T16:27:43.350Z,20.07
2018-12-29T16:30:48.594Z,20.60
2018-12-29T16:33:53.850Z,20.40
2018-12-29T16:36:58.508Z,18.00
2018-12-29T16:40:03.245Z,18.03
2018-12-29T16:43:07.973Z,19.57
2018-12-29T16:46:12.354Z,17.70
2018-12-29T16:49:16.769Z,18.30
2018-12-29T16:52:21.180Z,16.67
2018-12-29T16:55:25.621Z,17.90
2018-12-29T16:58:29.985Z,16.37
2018-12-29T17:01:34.574Z,16.83
2018-12-29T17:04:38.946Z,16.47
2018-12-29T17:07:43.357Z,16.30
2018-12-29T17:10:47.760Z,15.83
2018-12-29T17:13:52.158Z,15.60
2018-12-29T17:16:56.569Z,14.93
2018-12-29T17:20:00.979Z,13.73
2018-12-29T17:23:05.593Z,13.87
2018-12-29T17:26:10.230Z,14.83
2018-12-29T17:29:14.692Z,15.00
2018-12-29T17:32:19.126Z,15.60
2018-12-29T17:35:23.496Z,15.40
2018-12-29T17:38:27.976Z,13.80
2018-12-29T17:41:32.414Z,16.07
2018-12-29T17:44:36.840Z,16.73
2018-12-29T17:47:41.275Z,17.40
2018-12-29T17:50:45.671Z,16.50
2018-12-29T17:53:50.084Z,18.07
2018-12-29T17:56:54.486Z,17.70
2018-12-29T17:59:58.859Z,18.23
2018-12-29T18:03:03.243Z,19.63
2018-12-29T18:06:07.696Z,18.97
2018-12-29T18:09:12.026Z,19.63
2018-12-29T18:12:16.442Z,20.30
2018-12-29T18:15:21.181Z,19.40
2018-12-29T18:18:25.912Z,20.00
2018-12-29T18:21:30.314Z,21.60
2018-12-29T18:24:34.634Z,21.63
2018-12-29T18:27:39.060Z,21.57
2018-12-29T18:30:43.453Z,21.10
2018-12-29T18:33:48.281Z,20.37
2018-12-29T18:36:52.683Z,21.77
2018-12-29T18:39:57.060Z,22.00
2018-12-29T18:43:01.415Z,20.07
2018-12-29T18:46:06.009Z,20.10
2018-12-29T18:49:10.378Z,21.60
2018-12-29T18:52:14.664Z,21.90
2018-12-29T18:55:19.061Z,21.90
2018-12-29T18:58:23.797Z,21.00
2018-12-29T19:01:28.251Z,21.80
2018-12-29T19:04:34.998Z,21.47
2018-12-29T19:07:40.184Z,20.67
2018-12-29T19:10:44.861Z,20.90
2018-12-29T19:13:51.502Z,21.60
2018-12-29T19:16:55.961Z,20.70
2018-12-29T19:20:00.709Z,21.80
2018-12-29T19:23:05.283Z,20.63
2018-12-29T19:26:09.737Z,21.93
2018-12-29T19:29:14.323Z,21.50
2018-12-29T19:32:18.694Z,21.93
2018-12-29T19:35:23.637Z,20.83
2018-12-29T19:38:31.016Z,20.47
2018-12-29T19:41:35.438Z,20.30
2018-12-29T19:44:40.079Z,21.30
2018-12-29T19:47:44.535Z,22.63
2018-12-29T19:50:49.099Z,21.20
2018-12-29T19:53:53.732Z,21.13
2018-12-29T19:56:58.158Z,21.27
2018-12-29T20:00:02.693Z,19.80
2018-12-29T20:03:07.443Z,22.07
2018-12-29T20:06:13.203Z,21.10
2018-12-29T20:09:17.618Z,18.87
2018-12-29T20:12:21.988Z,15.10
2018-12-29T20:15:26.392Z,10.23
2018-12-29T20:18:30.777Z,7.07
2018-12-29T20:21:35.513Z,5.67
2018-12-29T20:24:39.954Z,4.60
2018-12-29T20:27:44.292Z,3.60
2018-12-29T20:30:48.614Z,3.00
2018-12-29T20:33:52.899Z,3.53
2018-12-29T20:36:57.413Z,2.40
2018-12-29T20:40:01.858Z,2.17
2018-12-29T20:43:06.263Z,2.73
2018-12-29T20:46:10.646Z,2.30
2018-12-29T20:49:15.018Z,1.80
2018-12-29T20:52:19.402Z,2.17
2018-12-29T20:55:23.747Z,2.00
2018-12-29T20:58:28.175Z,1.97
2018-12-29T21:01:32.624Z,2.00
2018-12-29T21:04:37.154Z,2.57
2018-12-29T21:07:41.515Z,2.10
2018-12-29T21:10:45.912Z,2.20
2018-12-29T21:13:50.316Z,2.87
2018-12-29T21:16:54.647Z,2.57
2018-12-29T21:19:59.086Z,2.33
2018-12-29T21:23:03.498Z,2.37
2018-12-29T21:26:07.906Z,1.93
2018-12-29T21:29:12.330Z,2.30
2018-12-29T21:32:16.682Z,2.20
2018-12-29T21:35:21.309Z,2.73
2018-12-29T21:38:25.759Z,2.30
2018-12-29T21:41:30.128Z,2.53
2018-12-29T21:44:34.543Z,2.67
2018-12-29T21:47:38.882Z,2.40
2018-12-29T21:50:43.169Z,2.50
2018-12-29T21:53:47.579Z,2.67
2018-12-29T21:56:51.927Z,3.03
2018-12-29T21:59:56.322Z,2.30
2018-12-29T22:03:00.694Z,2.23
2018-12-29T22:06:05.040Z,2.10
2018-12-29T22:09:09.416Z,2.20
2018-12-29T22:12:13.789Z,2.20
2018-12-29T22:15:18.099Z,2.10
2018-12-29T22:18:22.494Z,2.50
2018-12-29T22:21:26.838Z,2.00
2018-12-29T22:24:31.232Z,2.47
2018-12-29T22:27:36.056Z,2.30
2018-12-29T22:30:40.508Z,1.83
2018-12-29T22:33:44.857Z,2.83
2018-12-29T22:36:49.165Z,2.00
2018-12-29T22:39:53.514Z,2.20
2018-12-29T22:42:57.889Z,1.90
2018-12-29T22:46:02.266Z,1.70
2018-12-29T22:49:06.953Z,2.10
2018-12-29T22:52:11.362Z,1.70
2018-12-29T22:55:15.699Z,1.40
2018-12-29T22:58:20.123Z,1.97
2018-12-29T23:01:24.777Z,2.13
2018-12-29T23:04:29.236Z,2.20
2018-12-29T23:07:33.588Z,1.73
2018-12-29T23:10:37.978Z,2.10
2018-12-29T23:13:42.626Z,2.13
2018-12-29T23:16:47.026Z,2.40
2018-12-29T23:19:51.451Z,1.70
2018-12-29T23:22:56.115Z,1.93
2018-12-29T23:26:00.519Z,1.80
2018-12-29T23:29:04.928Z,1.57
2018-12-29T23:32:09.364Z,3.50
2018-12-29T23:35:14.068Z,1.80
2018-12-29T23:38:18.449Z,2.37
2018-12-29T23:41:22.716Z,1.90
2018-12-29T23:44:27.399Z,1.80
2018-12-29T23:47:31.761Z,1.93
2018-12-29T23:50:38.623Z,2.10
2018-12-29T23:53:43.236Z,2.03
2018-12-29T23:56:47.862Z,2.13
2018-12-29T23:59:52.608Z,2.20
